sensor_id;sensor_type;location;lat;lon;timestamp;pressure;altitude;pressure_sealevel;temperature;humidity
60874;BME280;46715;40.642;-7.920;2022-12-18T00:00:28;96664.63;;;6.39;100.00
60874;BME280;46715;40.642;-7.920;2022-12-18T00:02:28;96665.41;;;6.40;100.00
60874;BME280;46715;40.642;-7.920;2022-12-18T00:04:30;96667.44;;;6.38;100.00
60874;BME280;46715;40.642;-7.920;2022-12-18T00:06:31;96662.72;;;6.35;100.00
60874;BME280;46715;40.642;-7.920;2022-12-18T00:08:34;96663.41;;;6.30;100.00
60874;BME280;46715;40.642;-7.920;2022-12-18T00:10:35;96659.47;;;6.27;100.00
60874;BME280;46715;40.642;-7.920;2022-12-18T00:12:36;96663.31;;;6.25;100.00
60874;BME280;46715;40.642;-7.920;2022-12-18T00:14:36;96660.16;;;6.23;100.00
60874;BME280;46715;40.642;-7.920;2022-12-18T00:16:37;96655.22;;;6.21;100.00
60874;BME280;46715;40.642;-7.920;2022-12-18T00:18:38;96649.25;;;6.21;100.00
60874;BME280;46715;40.642;-7.920;2022-12-18T00:20:40;96654.09;;;6.17;100.00
60874;BME280;46715;40.642;-7.920;2022-12-18T00:22:40;96656.69;;;6.17;100.00
60874;BME280;46715;40.642;-7.920;2022-12-18T00:24:44;96647.34;;;6.16;100.00
60874;BME280;46715;40.642;-7.920;2022-12-18T00:26:45;96639.47;;;6.11;100.00
60874;BME280;46715;40.642;-7.920;2022-12-18T00:28:46;96643.63;;;6.12;100.00
60874;BME280;46715;40.642;-7.920;2022-12-18T00:30:46;96643.97;;;6.16;100.00
60874;BME280;46715;40.642;-7.920;2022-12-18T00:32:47;96633.50;;;6.10;100.00
60874;BME280;46715;40.642;-7.920;2022-12-18T00:34:48;96641.28;;;6.10;100.00
60874;BME280;46715;40.642;-7.920;2022-12-18T00:36:49;96641.50;;;5.97;100.00
60874;BME280;46715;40.642;-7.920;2022-12-18T00:38:50;96642.16;;;5.92;100.00
60874;BME280;46715;40.642;-7.920;2022-12-18T00:40:51;96636.44;;;5.90;100.00
60874;BME280;46715;40.642;-7.920;2022-12-18T00:42:52;96633.50;;;5.87;100.00
60874;BME280;46715;40.642;-7.920;2022-12-18T00:44:56;96632.63;;;5.81;100.00
60874;BME280;46715;40.642;-7.920;2022-12-18T00:46:57;96631.63;;;5.82;100.00
60874;BME280;46715;40.642;-7.920;2022-12-18T00:48:58;96634.19;;;5.82;100.00
60874;BME280;46715;40.642;-7.920;2022-12-18T00:50:58;96646.00;;;5.90;100.00
60874;BME280;46715;40.642;-7.920;2022-12-18T00:52:59;96641.63;;;5.90;100.00
60874;BME280;46715;40.642;-7.920;2022-12-18T00:55:00;96637.34;;;5.84;100.00
60874;BME280;46715;40.642;-7.920;2022-12-18T00:57:01;96644.31;;;5.84;100.00
60874;BME280;46715;40.642;-7.920;2022-12-18T00:59:01;96644.56;;;5.82;100.00
60874;BME280;46715;40.642;-7.920;2022-12-18T01:01:05;96643.75;;;5.81;100.00
60874;BME280;46715;40.642;-7.920;2022-12-18T01:03:09;96638.81;;;5.80;100.00
60874;BME280;46715;40.642;-7.920;2022-12-18T01:05:13;96642.75;;;5.83;100.00
60874;BME280;46715;40.642;-7.920;2022-12-18T01:07:14;96632.50;;;5.88;100.00
60874;BME280;46715;40.642;-7.920;2022-12-18T01:09:15;96631.72;;;5.87;100.00
60874;BME280;46715;40.642;-7.920;2022-12-18T01:11:18;96631.28;;;5.90;100.00
60874;BME280;46715;40.642;-7.920;2022-12-18T01:13:19;96635.63;;;5.90;100.00
60874;BME280;46715;40.642;-7.920;2022-12-18T01:15:24;96637.09;;;5.86;100.00
60874;BME280;46715;40.642;-7.920;2022-12-18T01:17:25;96643.53;;;5.83;100.00
60874;BME280;46715;40.642;-7.920;2022-12-18T01:19:25;96635.44;;;5.79;100.00
60874;BME280;46715;40.642;-7.920;2022-12-18T01:21:26;96648.16;;;5.81;100.00
60874;BME280;46715;40.642;-7.920;2022-12-18T01:23:27;96645.78;;;5.79;100.00
60874;BME280;46715;40.642;-7.920;2022-12-18T01:25:28;96642.63;;;5.77;100.00
60874;BME280;46715;40.642;-7.920;2022-12-18T01:27:29;96640.50;;;5.74;100.00
60874;BME280;46715;40.642;-7.920;2022-12-18T01:29:30;96645.22;;;5.77;100.00
60874;BME280;46715;40.642;-7.920;2022-12-18T01:31:33;96638.81;;;5.80;100.00
60874;BME280;46715;40.642;-7.920;2022-12-18T01:33:36;96637.78;;;5.81;100.00
60874;BME280;46715;40.642;-7.920;2022-12-18T01:35:43;96644.66;;;5.87;100.00
60874;BME280;46715;40.642;-7.920;2022-12-18T01:37:45;96639.03;;;5.90;100.00
60874;BME280;46715;40.642;-7.920;2022-12-18T01:39:46;96638.09;;;5.96;100.00
60874;BME280;46715;40.642;-7.920;2022-12-18T01:41:47;96632.16;;;6.08;100.00
60874;BME280;46715;40.642;-7.920;2022-12-18T01:46:43;96645.44;;;6.23;100.00
60874;BME280;46715;40.642;-7.920;2022-12-18T01:48:46;96646.19;;;6.24;100.00
60874;BME280;46715;40.642;-7.920;2022-12-18T01:50:47;96659.25;;;6.29;100.00
60874;BME280;46715;40.642;-7.920;2022-12-18T01:52:55;96654.19;;;6.22;100.00
60874;BME280;46715;40.642;-7.920;2022-12-18T01:54:57;96652.75;;;6.14;100.00
60874;BME280;46715;40.642;-7.920;2022-12-18T01:57:00;96660.75;;;6.13;100.00
60874;BME280;46715;40.642;-7.920;2022-12-18T01:59:04;96657.03;;;6.09;100.00
60874;BME280;46715;40.642;-7.920;2022-12-18T02:01:07;96651.53;;;6.05;100.00
60874;BME280;46715;40.642;-7.920;2022-12-18T02:03:08;96650.28;;;6.08;100.00
60874;BME280;46715;40.642;-7.920;2022-12-18T02:05:10;96653.75;;;6.13;100.00
60874;BME280;46715;40.642;-7.920;2022-12-18T02:07:30;96652.06;;;6.19;100.00
60874;BME280;46715;40.642;-7.920;2022-12-18T02:09:35;96647.78;;;6.25;100.00
60874;BME280;46715;40.642;-7.920;2022-12-18T02:12:05;96647.88;;;6.30;100.00
60874;BME280;46715;40.642;-7.920;2022-12-18T02:14:17;96652.25;;;6.29;100.00
60874;BME280;46715;40.642;-7.920;2022-12-18T02:18:45;96650.09;;;6.38;100.00
60874;BME280;46715;40.642;-7.920;2022-12-18T02:20:58;96654.59;;;6.43;100.00
60874;BME280;46715;40.642;-7.920;2022-12-18T02:23:11;96652.31;;;6.46;100.00
60874;BME280;46715;40.642;-7.920;2022-12-18T02:27:18;96651.06;;;6.61;100.00
60874;BME280;46715;40.642;-7.920;2022-12-18T02:29:26;96653.16;;;6.64;100.00
60874;BME280;46715;40.642;-7.920;2022-12-18T02:31:33;96647.16;;;6.75;100.00
60874;BME280;46715;40.642;-7.920;2022-12-18T02:33:36;96646.38;;;6.75;100.00
60874;BME280;46715;40.642;-7.920;2022-12-18T02:35:40;96653.09;;;6.76;100.00
60874;BME280;46715;40.642;-7.920;2022-12-18T02:37:45;96649.19;;;6.73;100.00
60874;BME280;46715;40.642;-7.920;2022-12-18T02:39:49;96653.81;;;6.71;100.00
60874;BME280;46715;40.642;-7.920;2022-12-18T02:41:52;96650.44;;;6.71;100.00
60874;BME280;46715;40.642;-7.920;2022-12-18T02:43:57;96659.00;;;6.71;100.00
60874;BME280;46715;40.642;-7.920;2022-12-18T02:46:00;96659.56;;;6.73;100.00
60874;BME280;46715;40.642;-7.920;2022-12-18T02:48:32;96658.00;;;6.72;100.00
60874;BME280;46715;40.642;-7.920;2022-12-18T02:50:34;96661.59;;;6.71;100.00
60874;BME280;46715;40.642;-7.920;2022-12-18T02:52:46;96649.41;;;6.72;100.00
60874;BME280;46715;40.642;-7.920;2022-12-18T02:57:34;96654.81;;;6.70;100.00
60874;BME280;46715;40.642;-7.920;2022-12-18T02:59:47;96647.84;;;6.71;100.00
60874;BME280;46715;40.642;-7.920;2022-12-18T03:04:38;96663.16;;;6.72;100.00
60874;BME280;46715;40.642;-7.920;2022-12-18T03:06:44;96665.66;;;6.67;100.00
60874;BME280;46715;40.642;-7.920;2022-12-18T03:08:52;96664.31;;;6.64;100.00
60874;BME280;46715;40.642;-7.920;2022-12-18T03:11:07;96658.59;;;6.62;100.00
60874;BME280;46715;40.642;-7.920;2022-12-18T03:13:13;96661.41;;;6.61;100.00
60874;BME280;46715;40.642;-7.920;2022-12-18T03:15:20;96662.44;;;6.60;100.00
60874;BME280;46715;40.642;-7.920;2022-12-18T03:17:32;96661.84;;;6.58;100.00
60874;BME280;46715;40.642;-7.920;2022-12-18T03:19:34;96668.31;;;6.55;100.00
60874;BME280;46715;40.642;-7.920;2022-12-18T03:21:41;96657.84;;;6.50;100.00
60874;BME280;46715;40.642;-7.920;2022-12-18T03:23:48;96666.16;;;6.52;100.00
60874;BME280;46715;40.642;-7.920;2022-12-18T03:25:52;96665.63;;;6.50;100.00
60874;BME280;46715;40.642;-7.920;2022-12-18T03:28:00;96665.38;;;6.52;100.00
60874;BME280;46715;40.642;-7.920;2022-12-18T03:30:05;96661.78;;;6.53;100.00
60874;BME280;46715;40.642;-7.920;2022-12-18T03:32:16;96667.19;;;6.51;100.00
60874;BME280;46715;40.642;-7.920;2022-12-18T03:34:24;96667.19;;;6.51;100.00
60874;BME280;46715;40.642;-7.920;2022-12-18T03:36:27;96666.09;;;6.47;100.00
60874;BME280;46715;40.642;-7.920;2022-12-18T03:38:31;96667.09;;;6.46;100.00
60874;BME280;46715;40.642;-7.920;2022-12-18T03:40:45;96662.69;;;6.46;100.00
60874;BME280;46715;40.642;-7.920;2022-12-18T03:42:51;96660.19;;;6.52;100.00
60874;BME280;46715;40.642;-7.920;2022-12-18T03:45:19;96661.81;;;6.70;100.00
60874;BME280;46715;40.642;-7.920;2022-12-18T03:47:27;96658.47;;;6.69;100.00
60874;BME280;46715;40.642;-7.920;2022-12-18T03:49:39;96662.38;;;6.72;100.00
60874;BME280;46715;40.642;-7.920;2022-12-18T03:52:06;96649.88;;;6.69;100.00
60874;BME280;46715;40.642;-7.920;2022-12-18T03:54:12;96647.75;;;6.65;100.00
60874;BME280;46715;40.642;-7.920;2022-12-18T03:56:25;96656.31;;;6.66;100.00
60874;BME280;46715;40.642;-7.920;2022-12-18T03:58:29;96647.19;;;6.63;100.00
60874;BME280;46715;40.642;-7.920;2022-12-18T04:00:42;96642.72;;;6.59;100.00
60874;BME280;46715;40.642;-7.920;2022-12-18T04:02:49;96649.13;;;6.56;100.00
60874;BME280;46715;40.642;-7.920;2022-12-18T04:04:59;96653.44;;;6.51;100.00
60874;BME280;46715;40.642;-7.920;2022-12-18T04:07:03;96662.28;;;6.38;100.00
60874;BME280;46715;40.642;-7.920;2022-12-18T04:09:07;96656.09;;;6.39;100.00
60874;BME280;46715;40.642;-7.920;2022-12-18T04:11:13;96660.69;;;6.37;100.00
60874;BME280;46715;40.642;-7.920;2022-12-18T04:13:25;96655.50;;;6.37;100.00
60874;BME280;46715;40.642;-7.920;2022-12-18T04:15:32;96656.09;;;6.27;100.00
60874;BME280;46715;40.642;-7.920;2022-12-18T04:17:35;96654.31;;;6.16;100.00
60874;BME280;46715;40.642;-7.920;2022-12-18T04:19:38;96659.50;;;6.16;100.00
60874;BME280;46715;40.642;-7.920;2022-12-18T04:21:39;96658.84;;;6.08;100.00
60874;BME280;46715;40.642;-7.920;2022-12-18T04:23:40;96662.09;;;6.04;100.00
60874;BME280;46715;40.642;-7.920;2022-12-18T04:25:41;96660.78;;;6.01;100.00
60874;BME280;46715;40.642;-7.920;2022-12-18T04:27:48;96660.19;;;5.99;100.00
60874;BME280;46715;40.642;-7.920;2022-12-18T04:29:49;96657.63;;;5.99;100.00
60874;BME280;46715;40.642;-7.920;2022-12-18T04:31:52;96662.78;;;5.99;100.00
60874;BME280;46715;40.642;-7.920;2022-12-18T04:33:53;96663.56;;;6.00;100.00
60874;BME280;46715;40.642;-7.920;2022-12-18T04:35:55;96657.03;;;5.97;100.00
60874;BME280;46715;40.642;-7.920;2022-12-18T04:37:56;96649.69;;;5.94;100.00
60874;BME280;46715;40.642;-7.920;2022-12-18T04:39:57;96648.25;;;5.86;100.00
60874;BME280;46715;40.642;-7.920;2022-12-18T04:42:06;96642.44;;;5.79;100.00
60874;BME280;46715;40.642;-7.920;2022-12-18T04:44:08;96646.00;;;5.78;100.00
60874;BME280;46715;40.642;-7.920;2022-12-18T04:46:09;96639.03;;;5.78;100.00
60874;BME280;46715;40.642;-7.920;2022-12-18T04:48:10;96638.22;;;6.13;100.00
60874;BME280;46715;40.642;-7.920;2022-12-18T04:50:11;96647.13;;;5.94;100.00
60874;BME280;46715;40.642;-7.920;2022-12-18T04:52:12;96651.06;;;6.08;100.00
60874;BME280;46715;40.642;-7.920;2022-12-18T04:54:12;96650.72;;;6.05;100.00
60874;BME280;46715;40.642;-7.920;2022-12-18T04:56:15;96653.22;;;6.00;100.00
60874;BME280;46715;40.642;-7.920;2022-12-18T04:58:16;96650.41;;;5.66;100.00
60874;BME280;46715;40.642;-7.920;2022-12-18T05:00:17;96643.97;;;5.56;100.00
60874;BME280;46715;40.642;-7.920;2022-12-18T05:02:17;96657.81;;;5.74;100.00
60874;BME280;46715;40.642;-7.920;2022-12-18T05:04:18;96647.13;;;5.82;100.00
60874;BME280;46715;40.642;-7.920;2022-12-18T05:06:19;96648.72;;;5.83;100.00
60874;BME280;46715;40.642;-7.920;2022-12-18T05:08:20;96647.69;;;5.84;100.00
60874;BME280;46715;40.642;-7.920;2022-12-18T05:10:20;96644.66;;;5.87;100.00
60874;BME280;46715;40.642;-7.920;2022-12-18T05:12:21;96643.19;;;5.91;100.00
60874;BME280;46715;40.642;-7.920;2022-12-18T05:14:22;96640.94;;;5.95;100.00
60874;BME280;46715;40.642;-7.920;2022-12-18T05:16:23;96642.50;;;5.96;100.00
60874;BME280;46715;40.642;-7.920;2022-12-18T05:18:25;96642.75;;;5.94;100.00
60874;BME280;46715;40.642;-7.920;2022-12-18T05:20:27;96634.97;;;5.94;100.00
60874;BME280;46715;40.642;-7.920;2022-12-18T05:22:28;96646.81;;;5.67;100.00
60874;BME280;46715;40.642;-7.920;2022-12-18T05:24:29;96646.91;;;5.72;100.00
60874;BME280;46715;40.642;-7.920;2022-12-18T05:26:30;96642.31;;;5.50;100.00
60874;BME280;46715;40.642;-7.920;2022-12-18T05:28:32;96647.59;;;5.43;100.00
60874;BME280;46715;40.642;-7.920;2022-12-18T05:30:33;96648.50;;;5.37;100.00
60874;BME280;46715;40.642;-7.920;2022-12-18T05:32:34;96654.09;;;5.34;100.00
60874;BME280;46715;40.642;-7.920;2022-12-18T05:34:35;96651.72;;;5.33;100.00
60874;BME280;46715;40.642;-7.920;2022-12-18T05:36:36;96652.97;;;5.30;100.00
60874;BME280;46715;40.642;-7.920;2022-12-18T05:38:38;96661.53;;;5.31;100.00
60874;BME280;46715;40.642;-7.920;2022-12-18T05:40:42;96657.91;;;5.32;100.00
60874;BME280;46715;40.642;-7.920;2022-12-18T05:42:43;96648.81;;;5.29;100.00
60874;BME280;46715;40.642;-7.920;2022-12-18T05:44:44;96655.78;;;5.28;100.00
60874;BME280;46715;40.642;-7.920;2022-12-18T05:46:45;96666.34;;;5.27;100.00
60874;BME280;46715;40.642;-7.920;2022-12-18T05:48:46;96662.16;;;5.26;100.00
60874;BME280;46715;40.642;-7.920;2022-12-18T05:50:48;96659.97;;;5.41;100.00
60874;BME280;46715;40.642;-7.920;2022-12-18T05:52:49;96664.44;;;5.34;100.00
60874;BME280;46715;40.642;-7.920;2022-12-18T05:54:49;96660.16;;;5.28;100.00
60874;BME280;46715;40.642;-7.920;2022-12-18T05:56:52;96663.19;;;5.25;100.00
60874;BME280;46715;40.642;-7.920;2022-12-18T05:58:54;96662.28;;;5.31;100.00
60874;BME280;46715;40.642;-7.920;2022-12-18T06:00:56;96665.47;;;5.33;100.00
60874;BME280;46715;40.642;-7.920;2022-12-18T06:02:56;96668.47;;;5.30;100.00
60874;BME280;46715;40.642;-7.920;2022-12-18T06:04:57;96659.59;;;5.26;100.00
60874;BME280;46715;40.642;-7.920;2022-12-18T06:06:58;96660.63;;;5.25;100.00
60874;BME280;46715;40.642;-7.920;2022-12-18T06:08:59;96673.53;;;5.25;100.00
60874;BME280;46715;40.642;-7.920;2022-12-18T06:11:01;96671.50;;;5.27;100.00
60874;BME280;46715;40.642;-7.920;2022-12-18T06:13:03;96670.72;;;5.26;100.00
60874;BME280;46715;40.642;-7.920;2022-12-18T06:15:04;96671.72;;;5.25;100.00
60874;BME280;46715;40.642;-7.920;2022-12-18T06:17:06;96673.75;;;5.23;100.00
60874;BME280;46715;40.642;-7.920;2022-12-18T06:19:07;96670.06;;;5.19;100.00
60874;BME280;46715;40.642;-7.920;2022-12-18T06:21:08;96669.38;;;5.24;100.00
60874;BME280;46715;40.642;-7.920;2022-12-18T06:23:08;96671.59;;;5.20;100.00
60874;BME280;46715;40.642;-7.920;2022-12-18T06:25:10;96670.25;;;5.18;100.00
60874;BME280;46715;40.642;-7.920;2022-12-18T06:27:11;96671.50;;;5.15;100.00
60874;BME280;46715;40.642;-7.920;2022-12-18T06:29:12;96676.22;;;5.18;100.00
60874;BME280;46715;40.642;-7.920;2022-12-18T06:31:13;96672.72;;;5.12;100.00
60874;BME280;46715;40.642;-7.920;2022-12-18T06:33:15;96681.13;;;5.08;100.00
60874;BME280;46715;40.642;-7.920;2022-12-18T06:35:16;96682.78;;;5.02;100.00
60874;BME280;46715;40.642;-7.920;2022-12-18T06:37:17;96688.53;;;5.04;100.00
60874;BME280;46715;40.642;-7.920;2022-12-18T06:39:18;96691.13;;;5.04;100.00
60874;BME280;46715;40.642;-7.920;2022-12-18T06:41:20;96690.63;;;4.95;100.00
60874;BME280;46715;40.642;-7.920;2022-12-18T06:43:21;96698.53;;;5.01;100.00
60874;BME280;46715;40.642;-7.920;2022-12-18T06:45:22;96696.94;;;5.00;100.00
60874;BME280;46715;40.642;-7.920;2022-12-18T06:47:23;96693.81;;;4.98;100.00
60874;BME280;46715;40.642;-7.920;2022-12-18T06:49:24;96698.97;;;4.98;100.00
60874;BME280;46715;40.642;-7.920;2022-12-18T06:51:25;96699.41;;;4.94;100.00
60874;BME280;46715;40.642;-7.920;2022-12-18T06:53:26;96703.00;;;4.93;100.00
60874;BME280;46715;40.642;-7.920;2022-12-18T06:55:26;96702.31;;;4.86;100.00
60874;BME280;46715;40.642;-7.920;2022-12-18T06:57:28;96699.59;;;4.81;100.00
60874;BME280;46715;40.642;-7.920;2022-12-18T06:59:29;96701.38;;;4.81;100.00
60874;BME280;46715;40.642;-7.920;2022-12-18T07:01:29;96702.16;;;4.81;100.00
60874;BME280;46715;40.642;-7.920;2022-12-18T07:03:30;96704.41;;;4.77;100.00
60874;BME280;46715;40.642;-7.920;2022-12-18T07:05:31;96710.91;;;4.80;100.00
60874;BME280;46715;40.642;-7.920;2022-12-18T07:07:34;96716.09;;;4.80;100.00
60874;BME280;46715;40.642;-7.920;2022-12-18T07:09:35;96720.53;;;4.73;100.00
60874;BME280;46715;40.642;-7.920;2022-12-18T07:11:35;96728.97;;;4.68;100.00
60874;BME280;46715;40.642;-7.920;2022-12-18T07:13:36;96726.00;;;4.65;100.00
60874;BME280;46715;40.642;-7.920;2022-12-18T07:15:37;96727.59;;;4.66;100.00
60874;BME280;46715;40.642;-7.920;2022-12-18T07:17:38;96725.78;;;4.66;100.00
60874;BME280;46715;40.642;-7.920;2022-12-18T07:19:38;96729.75;;;4.69;100.00
60874;BME280;46715;40.642;-7.920;2022-12-18T07:21:39;96734.28;;;4.73;100.00
60874;BME280;46715;40.642;-7.920;2022-12-18T07:23:40;96736.19;;;4.78;100.00
60874;BME280;46715;40.642;-7.920;2022-12-18T07:25:41;96733.59;;;4.78;100.00
60874;BME280;46715;40.642;-7.920;2022-12-18T07:27:42;96736.75;;;4.80;100.00
60874;BME280;46715;40.642;-7.920;2022-12-18T07:29:43;96743.94;;;4.78;100.00
60874;BME280;46715;40.642;-7.920;2022-12-18T07:31:44;96737.84;;;4.72;100.00
60874;BME280;46715;40.642;-7.920;2022-12-18T07:33:45;96738.47;;;4.68;100.00
60874;BME280;46715;40.642;-7.920;2022-12-18T07:35:46;96738.91;;;4.65;100.00
60874;BME280;46715;40.642;-7.920;2022-12-18T07:37:47;96746.34;;;4.61;100.00
60874;BME280;46715;40.642;-7.920;2022-12-18T07:39:47;96743.38;;;4.57;100.00
60874;BME280;46715;40.642;-7.920;2022-12-18T07:41:48;96738.00;;;4.59;100.00
60874;BME280;46715;40.642;-7.920;2022-12-18T07:44:10;96739.22;;;4.56;100.00
60874;BME280;46715;40.642;-7.920;2022-12-18T07:46:11;96743.00;;;4.54;100.00
60874;BME280;46715;40.642;-7.920;2022-12-18T07:48:14;96745.59;;;4.54;100.00
60874;BME280;46715;40.642;-7.920;2022-12-18T07:50:15;96745.19;;;4.57;100.00
60874;BME280;46715;40.642;-7.920;2022-12-18T07:52:15;96748.00;;;4.55;100.00
60874;BME280;46715;40.642;-7.920;2022-12-18T07:54:16;96755.50;;;4.57;100.00
60874;BME280;46715;40.642;-7.920;2022-12-18T07:56:17;96751.91;;;4.58;100.00
60874;BME280;46715;40.642;-7.920;2022-12-18T07:58:18;96755.75;;;4.55;100.00
60874;BME280;46715;40.642;-7.920;2022-12-18T08:00:19;96751.91;;;4.58;100.00
60874;BME280;46715;40.642;-7.920;2022-12-18T08:02:20;96763.31;;;4.69;100.00
60874;BME280;46715;40.642;-7.920;2022-12-18T08:04:21;96765.84;;;4.75;100.00
60874;BME280;46715;40.642;-7.920;2022-12-18T08:06:22;96765.38;;;4.78;100.00
60874;BME280;46715;40.642;-7.920;2022-12-18T08:08:22;96760.00;;;4.80;100.00
60874;BME280;46715;40.642;-7.920;2022-12-18T08:10:23;96746.44;;;4.85;100.00
60874;BME280;46715;40.642;-7.920;2022-12-18T08:12:24;96752.75;;;4.89;100.00
60874;BME280;46715;40.642;-7.920;2022-12-18T08:14:25;96745.13;;;4.94;100.00
60874;BME280;46715;40.642;-7.920;2022-12-18T08:16:26;96745.31;;;5.11;100.00
60874;BME280;46715;40.642;-7.920;2022-12-18T08:18:27;96752.31;;;5.22;100.00
60874;BME280;46715;40.642;-7.920;2022-12-18T08:20:28;96743.22;;;5.32;100.00
60874;BME280;46715;40.642;-7.920;2022-12-18T08:22:29;96749.34;;;5.49;100.00
60874;BME280;46715;40.642;-7.920;2022-12-18T08:24:30;96758.06;;;5.78;100.00
60874;BME280;46715;40.642;-7.920;2022-12-18T08:26:31;96750.69;;;6.06;100.00
60874;BME280;46715;40.642;-7.920;2022-12-18T08:28:32;96753.25;;;6.29;100.00
60874;BME280;46715;40.642;-7.920;2022-12-18T08:30:33;96739.38;;;6.88;100.00
60874;BME280;46715;40.642;-7.920;2022-12-18T08:32:35;96750.47;;;7.75;100.00
60874;BME280;46715;40.642;-7.920;2022-12-18T08:34:36;96752.09;;;8.55;100.00
60874;BME280;46715;40.642;-7.920;2022-12-18T08:36:37;96754.56;;;9.38;100.00
60874;BME280;46715;40.642;-7.920;2022-12-18T08:38:38;96752.78;;;10.14;100.00
60874;BME280;46715;40.642;-7.920;2022-12-18T08:40:39;96748.41;;;10.72;100.00
60874;BME280;46715;40.642;-7.920;2022-12-18T08:42:39;96752.69;;;11.04;100.00
60874;BME280;46715;40.642;-7.920;2022-12-18T08:44:58;96756.94;;;11.52;100.00
60874;BME280;46715;40.642;-7.920;2022-12-18T08:46:59;96759.56;;;11.83;97.31
60874;BME280;46715;40.642;-7.920;2022-12-18T08:49:00;96759.03;;;12.11;100.00
60874;BME280;46715;40.642;-7.920;2022-12-18T08:51:02;96772.31;;;12.46;93.97
60874;BME280;46715;40.642;-7.920;2022-12-18T08:53:03;96787.72;;;12.53;95.34
60874;BME280;46715;40.642;-7.920;2022-12-18T08:55:04;96770.22;;;12.38;96.25
60874;BME280;46715;40.642;-7.920;2022-12-18T08:57:05;96773.41;;;12.09;96.38
60874;BME280;46715;40.642;-7.920;2022-12-18T08:59:06;96776.53;;;11.75;97.63
60874;BME280;46715;40.642;-7.920;2022-12-18T09:01:08;96777.03;;;11.36;99.57
60874;BME280;46715;40.642;-7.920;2022-12-18T09:03:17;96788.19;;;11.05;100.00
60874;BME280;46715;40.642;-7.920;2022-12-18T09:05:18;96789.41;;;10.82;100.00
60874;BME280;46715;40.642;-7.920;2022-12-18T09:07:19;96790.38;;;10.61;100.00
60874;BME280;46715;40.642;-7.920;2022-12-18T09:09:20;96800.13;;;10.38;100.00
60874;BME280;46715;40.642;-7.920;2022-12-18T09:11:24;96797.41;;;10.22;100.00
60874;BME280;46715;40.642;-7.920;2022-12-18T09:13:25;96801.13;;;9.94;100.00
60874;BME280;46715;40.642;-7.920;2022-12-18T09:15:26;96802.84;;;9.83;100.00
60874;BME280;46715;40.642;-7.920;2022-12-18T09:17:27;96797.28;;;9.69;100.00
60874;BME280;46715;40.642;-7.920;2022-12-18T09:19:28;96797.31;;;9.75;100.00
60874;BME280;46715;40.642;-7.920;2022-12-18T09:21:31;96802.72;;;9.68;100.00
60874;BME280;46715;40.642;-7.920;2022-12-18T09:23:33;96797.41;;;9.58;100.00
60874;BME280;46715;40.642;-7.920;2022-12-18T09:25:34;96802.63;;;9.58;100.00
60874;BME280;46715;40.642;-7.920;2022-12-18T09:27:36;96787.50;;;9.54;100.00
60874;BME280;46715;40.642;-7.920;2022-12-18T09:29:37;96793.66;;;9.70;100.00
60874;BME280;46715;40.642;-7.920;2022-12-18T09:31:38;96800.38;;;9.99;100.00
60874;BME280;46715;40.642;-7.920;2022-12-18T09:33:39;96804.72;;;10.26;100.00
60874;BME280;46715;40.642;-7.920;2022-12-18T09:35:44;96816.38;;;10.50;100.00
60874;BME280;46715;40.642;-7.920;2022-12-18T09:37:45;96807.34;;;10.68;100.00
60874;BME280;46715;40.642;-7.920;2022-12-18T09:39:55;96813.34;;;10.74;100.00
60874;BME280;46715;40.642;-7.920;2022-12-18T09:42:20;96818.31;;;10.75;100.00
60874;BME280;46715;40.642;-7.920;2022-12-18T09:44:45;96809.47;;;10.77;100.00
60874;BME280;46715;40.642;-7.920;2022-12-18T09:47:41;96800.53;;;10.67;100.00
60874;BME280;46715;40.642;-7.920;2022-12-18T09:50:14;96811.31;;;10.76;100.00
60874;BME280;46715;40.642;-7.920;2022-12-18T09:52:27;96812.88;;;10.82;100.00
60874;BME280;46715;40.642;-7.920;2022-12-18T09:54:36;96816.53;;;10.86;100.00
60874;BME280;46715;40.642;-7.920;2022-12-18T09:56:41;96812.88;;;10.82;100.00
60874;BME280;46715;40.642;-7.920;2022-12-18T09:58:55;96814.47;;;10.94;100.00
60874;BME280;46715;40.642;-7.920;2022-12-18T10:01:20;96809.84;;;11.01;100.00
60874;BME280;46715;40.642;-7.920;2022-12-18T10:03:27;96812.25;;;11.18;100.00
60874;BME280;46715;40.642;-7.920;2022-12-18T10:05:47;96817.78;;;11.42;100.00
60874;BME280;46715;40.642;-7.920;2022-12-18T11:07:48;96863.28;;;13.51;93.21
60874;BME280;46715;40.642;-7.920;2022-12-18T11:10:00;96854.16;;;13.38;90.23
60874;BME280;46715;40.642;-7.920;2022-12-18T11:22:35;96845.06;;;13.70;88.46
60874;BME280;46715;40.642;-7.920;2022-12-18T11:24:54;96838.06;;;13.60;89.31
60874;BME280;46715;40.642;-7.920;2022-12-18T11:34:28;96826.56;;;13.95;90.37
60874;BME280;46715;40.642;-7.920;2022-12-18T11:36:38;96831.25;;;13.98;87.11
60874;BME280;46715;40.642;-7.920;2022-12-18T11:38:45;96819.66;;;13.70;90.05
60874;BME280;46715;40.642;-7.920;2022-12-18T11:46:00;96796.09;;;13.70;91.22
60874;BME280;46715;40.642;-7.920;2022-12-18T11:57:53;96814.53;;;13.89;88.54
60874;BME280;46715;40.642;-7.920;2022-12-18T12:09:24;96803.81;;;13.86;85.73
60874;BME280;46715;40.642;-7.920;2022-12-18T12:19:48;96800.50;;;13.75;89.41
60874;BME280;46715;40.642;-7.920;2022-12-18T12:34:19;96788.72;;;14.60;83.92
60874;BME280;46715;40.642;-7.920;2022-12-18T12:37:33;96780.50;;;14.67;84.08
60874;BME280;46715;40.642;-7.920;2022-12-18T12:39:08;96768.53;;;14.56;85.31
60874;BME280;46715;40.642;-7.920;2022-12-18T12:41:14;96771.59;;;14.68;84.10
60874;BME280;46715;40.642;-7.920;2022-12-18T12:43:42;96769.97;;;14.72;83.64
60874;BME280;46715;40.642;-7.920;2022-12-18T12:45:54;96766.44;;;14.58;83.12
60874;BME280;46715;40.642;-7.920;2022-12-18T12:47:57;96761.97;;;14.58;84.12
60874;BME280;46715;40.642;-7.920;2022-12-18T12:50:03;96751.72;;;14.81;83.76
60874;BME280;46715;40.642;-7.920;2022-12-18T12:52:12;96752.16;;;14.69;77.64
60874;BME280;46715;40.642;-7.920;2022-12-18T12:54:20;96755.66;;;14.83;79.93
60874;BME280;46715;40.642;-7.920;2022-12-18T13:01:32;96755.69;;;15.22;77.76
60874;BME280;46715;40.642;-7.920;2022-12-18T13:03:52;96770.50;;;15.12;75.67
60874;BME280;46715;40.642;-7.920;2022-12-18T13:06:10;96764.41;;;15.17;74.57
60874;BME280;46715;40.642;-7.920;2022-12-18T13:08:50;96763.53;;;15.41;73.68
60874;BME280;46715;40.642;-7.920;2022-12-18T13:10:56;96755.31;;;15.47;72.86